Time;durP1;ratioP1;P1;durP2;ratioP2;P2;SDS_P1;SDS_P2;PMS_P1;PMS_P2;Temp;Humidity;BMP_temperature;BMP_pressure;BME280_temperature;BME280_humidity;BME280_pressure;Samples;Min_cycle;Max_cycle;Signal;HPM_P1;HPM_P2
2022/08/17 00:00:36;;;;;;;;;;;;;;;23.88;62.90;100198.53;7399904;19;1885;-44
2022/08/17 00:03:07;;;;;;;;;;;;;;;23.89;62.84;100206.44;7401094;19;2059;-43
2022/08/17 00:05:37;;;;;;;;;;;;;;;23.97;62.72;100208.22;7400771;19;1709;-43
2022/08/17 00:08:05;;;;;;;;;;;;;;;24.01;62.38;100204.13;7401950;19;1797;-43
2022/08/17 00:10:37;;;;;;;;;;;;;;;24.03;62.48;100204.78;7399712;19;1606;-43
2022/08/17 00:13:09;;;;;;;;;;;;;;;24.00;62.20;100206.00;7401785;19;1769;-43
2022/08/17 00:15:37;;;;;;;;;;;;;;;23.94;62.29;100192.41;7398457;19;1756;-43
2022/08/17 00:18:06;;;;;;;;;;;;;;;23.98;62.48;100182.91;7400332;19;1780;-43
2022/08/17 00:20:34;;;;;;;;;;;;;;;24.01;62.33;100209.53;7399844;19;1860;-43
2022/08/17 00:23:07;;;;;;;;;;;;;;;23.94;62.29;100192.41;7400852;19;1618;-43
2022/08/17 00:25:38;;;;;;;;;;;;;;;23.88;62.44;100202.06;7400608;19;1680;-42
2022/08/17 00:28:06;;;;;;;;;;;;;;;23.86;62.34;100198.72;7402236;19;1694;-43
2022/08/17 00:30:34;;;;;;;;;;;;;;;23.88;61.93;100182.34;7403869;19;1878;-43
2022/08/17 00:33:10;;;;;;;;;;;;;;;23.87;62.13;100194.13;7408019;19;1386;-43
2022/08/17 00:35:38;;;;;;;;;;;;;;;23.87;62.19;100192.28;7408352;19;1739;-43
2022/08/17 00:38:08;;;;;;;;;;;;;;;23.80;61.93;100202.13;7409065;19;1813;-43
2022/08/17 00:40:41;;;;;;;;;;;;;;;23.75;62.20;100191.81;7405869;19;1842;-43
2022/08/17 00:43:12;;;;;;;;;;;;;;;23.84;62.03;100195.34;7408685;19;1516;-42
2022/08/17 00:45:40;;;;;;;;;;;;;;;23.83;62.17;100182.84;7408474;19;1747;-43
2022/08/17 00:48:08;;;;;;;;;;;;;;;23.87;62.30;100189.56;7407613;19;2041;-42
2022/08/17 00:50:37;;;;;;;;;;;;;;;23.88;62.02;100188.56;7406896;19;1668;-42
2022/08/17 00:53:05;;;;;;;;;;;;;;;23.74;62.12;100190.16;7408290;19;1501;-42
2022/08/17 00:55:34;;;;;;;;;;;;;;;23.80;62.43;100192.16;7407504;19;1696;-44
2022/08/17 00:58:07;;;;;;;;;;;;;;;23.90;62.14;100208.13;7407645;19;1394;-43
2022/08/17 01:00:37;;;;;;;;;;;;;;;23.76;62.09;100201.63;7405800;19;2069;-43
2022/08/17 01:03:07;;;;;;;;;;;;;;;23.72;61.88;100189.50;7407540;19;1609;-42
2022/08/17 01:05:37;;;;;;;;;;;;;;;23.69;62.22;100195.25;7406830;19;1587;-43
2022/08/17 01:08:07;;;;;;;;;;;;;;;23.70;61.95;100188.84;7406983;19;1580;-44
2022/08/17 01:10:39;;;;;;;;;;;;;;;23.61;62.11;100189.91;7407177;19;1961;-43
2022/08/17 01:13:10;;;;;;;;;;;;;;;23.77;61.90;100200.63;7407811;19;1469;-43
2022/08/17 01:15:39;;;;;;;;;;;;;;;23.81;61.80;100203.78;7405621;19;1464;-43
2022/08/17 01:18:09;;;;;;;;;;;;;;;23.57;61.79;100175.94;7407315;19;1639;-43
2022/08/17 01:20:37;;;;;;;;;;;;;;;23.69;62.09;100184.44;7405513;19;1889;-43
2022/08/17 01:23:08;;;;;;;;;;;;;;;23.68;61.89;100193.59;7406328;19;1754;-44
2022/08/17 01:25:36;;;;;;;;;;;;;;;23.79;62.07;100195.88;7406440;19;1935;-43
2022/08/17 01:28:05;;;;;;;;;;;;;;;23.73;62.21;100169.56;7407622;19;1757;-42
2022/08/17 01:30:33;;;;;;;;;;;;;;;23.72;62.22;100178.72;7406484;19;2026;-43
2022/08/17 01:33:02;;;;;;;;;;;;;;;23.74;62.18;100171.25;7405853;19;1413;-43
2022/08/17 01:35:30;;;;;;;;;;;;;;;23.68;62.35;100165.75;7407102;19;1685;-43
2022/08/17 01:37:58;;;;;;;;;;;;;;;23.70;62.55;100182.63;7406758;19;1880;-42
2022/08/17 01:40:32;;;;;;;;;;;;;;;23.79;62.24;100184.25;7405081;19;1845;-43
2022/08/17 01:43:03;;;;;;;;;;;;;;;23.69;62.52;100189.84;7404759;19;1941;-43
2022/08/17 01:45:33;;;;;;;;;;;;;;;23.74;62.45;100179.38;7406186;19;1716;-44
2022/08/17 01:48:02;;;;;;;;;;;;;;;23.72;62.20;100194.06;7406245;19;1950;-43
2022/08/17 01:50:33;;;;;;;;;;;;;;;23.68;62.65;100182.78;7406075;19;1789;-43
2022/08/17 01:53:03;;;;;;;;;;;;;;;23.69;62.30;100184.44;7406438;19;1680;-42
2022/08/17 01:55:38;;;;;;;;;;;;;;;23.74;62.39;100186.63;7405580;19;1964;-44
2022/08/17 01:58:08;;;;;;;;;;;;;;;23.75;62.20;100182.91;7405849;19;1686;-43
2022/08/17 02:00:37;;;;;;;;;;;;;;;23.80;62.14;100181.38;7398001;19;3459;-67
2022/08/17 02:03:07;;;;;;;;;;;;;;;23.80;62.06;100181.38;7407080;19;1434;-67
2022/08/17 02:05:36;;;;;;;;;;;;;;;23.81;62.06;100184.91;7409179;19;1643;-67
2022/08/17 02:08:06;;;;;;;;;;;;;;;23.67;62.31;100181.09;7411045;19;1008;-67
2022/08/17 02:10:37;;;;;;;;;;;;;;;23.66;62.11;100176.72;7409216;19;1722;-68
2022/08/17 02:13:06;;;;;;;;;;;;;;;23.70;62.02;100186.16;7408430;19;1290;-66
2022/08/17 02:15:34;;;;;;;;;;;;;;;23.75;62.02;100180.19;7407828;19;1751;-66
2022/08/17 02:18:04;;;;;;;;;;;;;;;23.70;62.23;100180.75;7408732;19;1540;-67
2022/08/17 02:20:32;;;;;;;;;;;;;;;23.73;62.31;100183.06;7408490;19;1861;-67
2022/08/17 02:23:02;;;;;;;;;;;;;;;23.75;62.20;100186.44;7409400;19;1610;-68
2022/08/17 02:25:32;;;;;;;;;;;;;;;23.81;62.18;100180.38;7409110;19;1588;-66
2022/08/17 02:28:03;;;;;;;;;;;;;;;23.78;62.21;100191.50;7408410;19;1301;-70
2022/08/17 02:30:32;;;;;;;;;;;;;;;23.82;62.19;100195.53;7408299;19;1554;-67
2022/08/17 02:33:00;;;;;;;;;;;;;;;23.66;62.26;100187.53;7408666;19;1516;-67
2022/08/17 02:35:29;;;;;;;;;;;;;;;23.69;62.28;100195.25;7405470;19;1532;-66
2022/08/17 02:37:57;;;;;;;;;;;;;;;23.65;62.26;100180.44;7408895;19;1573;-67
2022/08/17 02:40:26;;;;;;;;;;;;;;;23.65;62.08;100182.31;7407351;19;1857;-67
2022/08/17 02:42:55;;;;;;;;;;;;;;;23.67;61.76;100180.25;7408905;19;1560;-67
2022/08/17 02:45:26;;;;;;;;;;;;;;;23.65;61.92;100183.13;7407190;19;1532;-67
2022/08/17 02:47:55;;;;;;;;;;;;;;;23.65;61.61;100199.34;7408042;19;1352;-67
2022/08/17 02:50:25;;;;;;;;;;;;;;;23.57;62.08;100200.22;7406713;19;1220;-67
2022/08/17 02:52:54;;;;;;;;;;;;;;;23.55;61.91;100196.03;7403868;19;1267;-63
2022/08/17 02:55:24;;;;;;;;;;;;;;;23.68;61.59;100208.94;7403902;19;1416;-64
2022/08/17 02:57:53;;;;;;;;;;;;;;;23.76;61.38;100212.41;7405686;19;1280;-63
2022/08/17 03:00:23;;;;;;;;;;;;;;;23.77;61.50;100203.31;7403824;19;1842;-62
2022/08/17 03:02:55;;;;;;;;;;;;;;;23.71;61.47;100222.91;7403986;19;1208;-63
2022/08/17 03:05:25;;;;;;;;;;;;;;;23.76;61.30;100212.41;7405522;19;1318;-67
2022/08/17 03:07:54;;;;;;;;;;;;;;;23.70;61.70;100210.44;7406652;19;1325;-66
2022/08/17 03:10:23;;;;;;;;;;;;;;;23.76;61.56;100211.59;7406011;19;1583;-66
2022/08/17 03:12:52;;;;;;;;;;;;;;;23.68;61.83;100196.28;7400611;19;1364;-66
2022/08/17 03:15:22;;;;;;;;;;;;;;;23.63;61.67;100207.63;7402864;19;1516;-66
2022/08/17 03:17:54;;;;;;;;;;;;;;;23.60;61.81;100193.66;7402898;19;1295;-66
2022/08/17 03:20:23;;;;;;;;;;;;;;;23.54;61.67;100200.59;7403892;19;1865;-66
2022/08/17 03:22:53;;;;;;;;;;;;;;;23.48;61.77;100197.78;7406707;19;1342;-67
2022/08/17 03:25:23;;;;;;;;;;;;;;;23.42;61.64;100196.63;7405884;19;1306;-67
2022/08/17 03:27:51;;;;;;;;;;;;;;;23.39;61.68;100197.81;7406662;19;1358;-66
2022/08/17 03:30:21;;;;;;;;;;;;;;;23.39;61.99;100203.22;7405792;19;1365;-67
2022/08/17 03:32:50;;;;;;;;;;;;;;;23.32;61.86;100204.97;7406867;19;1533;-67
2022/08/17 03:35:23;;;;;;;;;;;;;;;23.38;61.98;100208.81;7405234;19;1636;-67
2022/08/17 03:37:52;;;;;;;;;;;;;;;23.37;61.53;100207.94;7405303;19;1662;-66
2022/08/17 03:40:21;;;;;;;;;;;;;;;23.49;61.86;100191.34;7404142;19;1839;-66
2022/08/17 03:42:51;;;;;;;;;;;;;;;23.50;61.70;100193.06;7406725;19;1566;-67
2022/08/17 03:56:41;;;;;;;;;;;;;;;23.56;61.85;100213.94;7404956;19;1550;-66
2022/08/17 03:58:56;;;;;;;;;;;;;;;23.57;61.58;100234.47;7405312;19;1334;-67
2022/08/17 04:01:25;;;;;;;;;;;;;;;23.58;61.67;100230.78;7403431;19;1857;-67
2022/08/17 04:03:54;;;;;;;;;;;;;;;23.60;61.24;100234.97;7405783;19;1541;-67
2022/08/17 04:06:25;;;;;;;;;;;;;;;23.55;61.52;100220.31;7405111;19;1242;-67
2022/08/17 04:08:53;;;;;;;;;;;;;;;23.55;61.46;100239.22;7405106;19;1604;-67
2022/08/17 04:11:22;;;;;;;;;;;;;;;23.57;61.40;100239.88;7405704;19;1344;-67
2022/08/17 04:13:50;;;;;;;;;;;;;;;23.64;61.57;100248.97;7405660;19;1496;-67
2022/08/17 04:16:19;;;;;;;;;;;;;;;23.65;61.49;100242.53;7404322;19;1536;-67
2022/08/17 04:18:47;;;;;;;;;;;;;;;23.74;61.25;100246.84;7404677;19;1404;-67
2022/08/17 04:21:16;;;;;;;;;;;;;;;23.82;61.37;100244.13;7403372;19;1833;-67
2022/08/17 04:23:47;;;;;;;;;;;;;;;23.94;61.24;100254.50;7403277;19;1232;-67
2022/08/17 04:26:19;;;;;;;;;;;;;;;24.19;60.29;100239.78;7400015;19;1462;-67
2022/08/17 04:28:47;;;;;;;;;;;;;;;24.55;59.58;100255.34;7401800;19;1723;-67
2022/08/17 04:31:16;;;;;;;;;;;;;;;25.08;57.92;100255.25;7404598;19;1561;-67
2022/08/17 04:33:45;;;;;;;;;;;;;;;24.88;58.10;100254.16;7405333;19;1638;-66
2022/08/17 04:36:15;;;;;;;;;;;;;;;24.52;59.24;100260.28;7405445;19;1568;-67
2022/08/17 04:38:47;;;;;;;;;;;;;;;24.28;59.50;100255.91;7403902;19;1411;-67
2022/08/17 04:43:58;;;;;;;;;;;;;;;24.02;60.64;100268.78;7403483;19;1753;-67
2022/08/17 04:46:28;;;;;;;;;;;;;;;24.01;60.50;100268.97;7403360;19;1477;-66
2022/08/17 04:48:57;;;;;;;;;;;;;;;24.03;60.55;100272.31;7404338;19;1605;-67
2022/08/17 04:51:30;;;;;;;;;;;;;;;24.03;60.52;100256.13;7402792;19;1240;-67
2022/08/17 04:54:02;;;;;;;;;;;;;;;23.99;60.71;100257.50;7403378;19;1335;-67
2022/08/17 04:56:31;;;;;;;;;;;;;;;24.02;60.72;100262.56;7404906;19;1435;-67
2022/08/17 04:59:01;;;;;;;;;;;;;;;24.05;60.67;100258.63;7403124;19;1382;-58
2022/08/17 05:01:30;;;;;;;;;;;;;;;24.21;60.64;100274.69;7401638;19;1847;-58
2022/08/17 05:04:00;;;;;;;;;;;;;;;24.35;60.39;100267.66;7400818;19;1434;-58
2022/08/17 05:06:29;;;;;;;;;;;;;;;24.38;59.95;100248.38;7403859;19;1586;-58
2022/08/17 05:09:01;;;;;;;;;;;;;;;24.42;60.21;100244.28;7403642;19;1397;-57
2022/08/17 05:11:31;;;;;;;;;;;;;;;24.51;60.26;100256.75;7404127;19;989;-57
2022/08/17 05:14:00;;;;;;;;;;;;;;;24.50;60.58;100252.34;7403257;19;1588;-57
2022/08/17 05:16:29;;;;;;;;;;;;;;;24.51;60.42;100262.16;7402041;19;1288;-57
2022/08/17 05:18:58;;;;;;;;;;;;;;;24.59;60.07;100253.09;7409290;19;1391;-57
2022/08/17 05:21:28;;;;;;;;;;;;;;;24.64;60.07;100263.38;7409635;19;1864;-56
2022/08/17 05:23:57;;;;;;;;;;;;;;;24.69;60.21;100271.75;7410121;19;1754;-58
2022/08/17 05:26:29;;;;;;;;;;;;;;;24.68;60.48;100272.78;7409953;19;1361;-57
2022/08/17 05:28:58;;;;;;;;;;;;;;;24.63;60.84;100262.53;7409329;19;1523;-57
2022/08/17 05:31:27;;;;;;;;;;;;;;;24.79;60.56;100266.94;7408090;19;1580;-56
2022/08/17 05:33:56;;;;;;;;;;;;;;;24.85;60.13;100274.31;7410881;19;1649;-56
2022/08/17 05:36:24;;;;;;;;;;;;;;;24.84;60.14;100269.06;7407805;19;1237;-56
2022/08/17 05:38:52;;;;;;;;;;;;;;;24.83;60.22;100265.53;7409256;19;1388;-56
2022/08/17 05:41:21;;;;;;;;;;;;;;;24.93;60.08;100285.03;7408200;19;1865;-56
2022/08/17 05:43:52;;;;;;;;;;;;;;;24.91;60.33;100262.72;7409126;19;1530;-56
2022/08/17 05:46:24;;;;;;;;;;;;;;;24.95;60.40;100258.63;7408647;19;1655;-56
2022/08/17 05:48:54;;;;;;;;;;;;;;;24.96;60.21;100260.28;7408545;19;1290;-56
2022/08/17 05:51:31;;;;;;;;;;;;;;;24.99;60.13;100259.94;7409518;19;1553;-56
2022/08/17 05:54:06;;;;;;;;;;;;;;;25.00;60.04;100258.06;7409782;19;1533;-56
2022/08/17 05:56:44;;;;;;;;;;;;;;;24.99;60.29;100267.22;7408650;19;1360;-56
2022/08/17 05:59:17;;;;;;;;;;;;;;;25.01;60.22;100257.88;7407006;19;1352;-56
2022/08/17 06:01:50;;;;;;;;;;;;;;;24.99;60.26;100259.94;7407197;19;1849;-56
2022/08/17 06:04:24;;;;;;;;;;;;;;;24.96;60.43;100270.28;7405644;19;1528;-56
2022/08/17 06:06:57;;;;;;;;;;;;;;;24.97;60.57;100264.69;7407815;19;1347;-56
2022/08/17 06:09:35;;;;;;;;;;;;;;;25.05;60.70;100263.75;7407586;19;1592;-56
2022/08/17 06:12:11;;;;;;;;;;;;;;;25.00;60.43;100267.00;7407145;19;1251;-56
2022/08/17 06:14:52;;;;;;;;;;;;;;;25.02;60.37;100256.00;7406069;19;1517;-56
2022/08/17 06:17:23;;;;;;;;;;;;;;;25.04;60.44;100247.69;7408224;19;1422;-56
2022/08/17 06:19:54;;;;;;;;;;;;;;;25.02;60.85;100264.94;7409658;19;1505;-71
2022/08/17 06:22:25;;;;;;;;;;;;;;;25.05;60.65;100265.59;7407868;19;1846;-71
2022/08/17 06:24:55;;;;;;;;;;;;;;;25.02;60.87;100254.13;7408199;19;1540;-56
2022/08/17 06:27:28;;;;;;;;;;;;;;;25.05;60.45;100254.78;7408588;19;1178;-57
2022/08/17 06:30:06;;;;;;;;;;;;;;;25.14;60.57;100269.88;7407760;19;1748;-56
2022/08/17 06:32:36;;;;;;;;;;;;;;;25.10;60.88;100253.19;7406898;19;1707;-56
2022/08/17 06:35:06;;;;;;;;;;;;;;;25.04;61.26;100269.34;7405326;19;1359;-56
2022/08/17 06:37:52;;;;;;;;;;;;;;;24.10;62.04;100272.44;7405786;19;1747;-56
2022/08/17 06:40:29;;;;;;;;;;;;;;;23.37;62.90;100270.00;7404818;19;1483;-56
2022/08/17 06:43:11;;;;;;;;;;;;;;;23.20;62.95;100260.34;7405544;19;1842;-56
2022/08/17 06:45:47;;;;;;;;;;;;;;;23.16;62.79;100264.41;7405809;19;1418;-56
2022/08/17 06:48:23;;;;;;;;;;;;;;;23.11;62.88;100267.59;7407444;19;1362;-57
2022/08/17 06:50:58;;;;;;;;;;;;;;;23.09;63.03;100239.97;7408050;19;1604;-56
2022/08/17 06:53:31;;;;;;;;;;;;;;;23.14;62.74;100263.69;7408922;19;1311;-71
2022/08/17 06:56:01;;;;;;;;;;;;;;;23.05;62.93;100257.50;7406909;19;1566;-70
2022/08/17 06:58:32;;;;;;;;;;;;;;;23.00;63.20;100258.00;7408145;19;1735;-70
2022/08/17 07:01:06;;;;;;;;;;;;;;;22.98;62.99;100251.13;7405884;19;1481;-71
2022/08/17 07:03:37;;;;;;;;;;;;;;;22.96;63.22;100262.06;7405164;19;1834;-71
2022/08/17 07:06:08;;;;;;;;;;;;;;;22.90;63.36;100261.91;7407209;19;1214;-70
2022/08/17 07:08:41;;;;;;;;;;;;;;;22.83;63.38;100257.22;7408243;19;1521;-70
2022/08/17 07:11:14;;;;;;;;;;;;;;;22.84;63.28;100253.53;7406868;19;1193;-71
2022/08/17 07:13:47;;;;;;;;;;;;;;;22.81;63.19;100271.88;7406514;19;1671;-70
2022/08/17 07:16:22;;;;;;;;;;;;;;;22.90;62.67;100270.88;7406307;19;1536;-71
2022/08/17 07:18:52;;;;;;;;;;;;;;;22.80;63.16;100264.81;7407920;19;1442;-71
2022/08/17 07:21:27;;;;;;;;;;;;;;;22.83;62.87;100286.03;7406005;19;1377;-70
2022/08/17 07:24:19;;;;;;;;;;;;;;;22.75;62.62;100256.41;7407787;19;1604;-70
2022/08/17 07:26:48;;;;;;;;;;;;;;;22.83;62.79;100267.16;7406908;19;1356;-71
2022/08/17 07:29:19;;;;;;;;;;;;;;;22.90;62.69;100278.09;7407720;19;1360;-71
2022/08/17 07:31:50;;;;;;;;;;;;;;;22.73;62.86;100280.00;7406564;19;1528;-70
2022/08/17 07:34:19;;;;;;;;;;;;;;;22.75;62.67;100283.38;7407879;19;1354;-71
2022/08/17 07:36:47;;;;;;;;;;;;;;;22.75;62.85;100277.97;7406367;19;1761;-70
2022/08/17 07:39:27;;;;;;;;;;;;;;;22.75;62.60;100262.63;7404902;19;1306;-70
2022/08/17 07:42:03;;;;;;;;;;;;;;;22.76;62.41;100274.25;7406234;19;1860;-70
2022/08/17 07:44:32;;;;;;;;;;;;;;;22.73;62.65;100271.91;7404463;19;1518;-70
2022/08/17 07:49:46;;;;;;;;;;;;;;;22.69;62.72;100266.00;7407323;19;1484;-70
2022/08/17 07:52:29;;;;;;;;;;;;;;;22.68;62.57;100272.44;7406815;19;1324;-70
2022/08/17 07:54:58;;;;;;;;;;;;;;;22.69;62.27;100240.94;7405092;19;1305;-71
2022/08/17 07:57:34;;;;;;;;;;;;;;;22.67;62.60;100269.91;7407331;19;1012;-70
2022/08/17 08:00:15;;;;;;;;;;;;;;;22.68;62.86;100271.56;7405067;19;1651;-71
2022/08/17 08:03:00;;;;;;;;;;;;;;;22.59;62.64;100271.59;7405010;19;1850;-70
2022/08/17 08:05:30;;;;;;;;;;;;;;;22.59;62.91;100268.91;7405193;19;1611;-70
2022/08/17 08:08:00;;;;;;;;;;;;;;;22.60;62.65;100264.34;7406305;19;1532;-70
2022/08/17 08:10:31;;;;;;;;;;;;;;;22.66;62.64;100274.47;7404602;19;1547;-70
2022/08/17 08:13:09;;;;;;;;;;;;;;;22.64;62.89;100261.16;7405315;19;1567;-70
2022/08/17 08:15:39;;;;;;;;;;;;;;;22.62;62.42;100265.88;7402166;19;1611;-68
2022/08/17 08:18:23;;;;;;;;;;;;;;;22.82;62.37;100252.84;7404568;19;1622;-74
2022/08/17 08:20:53;;;;;;;;;;;;;;;22.83;62.60;100256.38;7404512;19;1407;-64
2022/08/17 08:23:28;;;;;;;;;;;;;;;22.89;62.69;100258.38;7403186;19;1871;-62
2022/08/17 08:26:05;;;;;;;;;;;;;;;23.15;64.41;100247.34;7404479;19;1463;-71
2022/08/17 08:28:42;;;;;;;;;;;;;;;23.35;65.57;100245.06;7403999;19;1497;-72
2022/08/17 08:31:26;;;;;;;;;;;;;;;23.30;64.88;100244.75;7404151;19;1314;-68
2022/08/17 08:34:06;;;;;;;;;;;;;;;23.25;62.94;100252.53;7404579;19;1567;-66
2022/08/17 08:36:41;;;;;;;;;;;;;;;23.00;63.07;100244.53;7404762;19;1183;-67
2022/08/17 08:39:13;;;;;;;;;;;;;;;22.93;62.51;100257.00;7404414;19;1630;-69
2022/08/17 08:41:46;;;;;;;;;;;;;;;22.90;61.85;100238.50;7405129;19;1536;-69
2022/08/17 08:44:20;;;;;;;;;;;;;;;22.97;61.83;100239.47;7400810;19;1837;-70
2022/08/17 08:46:58;;;;;;;;;;;;;;;23.09;61.55;100242.66;7406749;19;1301;-79
2022/08/17 08:49:40;;;;;;;;;;;;;;;23.18;62.29;100244.31;7405707;19;1772;-72
2022/08/17 08:52:14;;;;;;;;;;;;;;;23.19;62.75;100226.25;7409493;19;1312;-60
2022/08/17 08:54:46;;;;;;;;;;;;;;;23.19;62.95;100248.69;7409483;19;1252;-62
2022/08/17 08:57:20;;;;;;;;;;;;;;;23.25;62.59;100236.34;7411305;19;1349;-66
2022/08/17 08:59:55;;;;;;;;;;;;;;;23.32;62.45;100248.13;7410426;19;1321;-58
2022/08/17 09:02:32;;;;;;;;;;;;;;;23.17;63.12;100233.69;7407768;19;1862;-63
2022/08/17 09:05:08;;;;;;;;;;;;;;;23.24;63.34;100240.06;7411622;19;1619;-62
2022/08/17 09:07:40;;;;;;;;;;;;;;;23.28;62.57;100246.81;7410253;19;1390;-68
2022/08/17 09:10:13;;;;;;;;;;;;;;;23.36;63.61;100229.72;7409221;19;1316;-68
2022/08/17 09:12:48;;;;;;;;;;;;;;;23.27;63.39;100228.91;7410048;19;1528;-68
2022/08/17 09:15:19;;;;;;;;;;;;;;;23.25;63.41;100255.22;7408667;19;1421;-68
2022/08/17 09:17:51;;;;;;;;;;;;;;;23.29;63.67;100253.03;7409426;19;1422;-68
2022/08/17 09:20:24;;;;;;;;;;;;;;;23.40;63.30;100222.97;7409463;19;1797;-64
2022/08/17 09:22:58;;;;;;;;;;;;;;;23.50;62.94;100239.75;7401586;19;1878;-63
2022/08/17 09:25:28;;;;;;;;;;;;;;;23.48;62.75;100240.97;7409363;19;1217;-67
2022/08/17 09:27:58;;;;;;;;;;;;;;;23.52;62.71;100231.50;7409757;19;1406;-69
2022/08/17 09:30:28;;;;;;;;;;;;;;;23.35;63.00;100236.97;7410693;19;1619;-66
2022/08/17 09:32:58;;;;;;;;;;;;;;;23.30;62.80;100236.66;7407040;19;1496;-68
2022/08/17 09:35:34;;;;;;;;;;;;;;;23.31;62.95;100241.03;7408551;19;1387;-69
2022/08/17 09:38:04;;;;;;;;;;;;;;;23.33;62.79;100238.16;7408091;19;1208;-62
2022/08/17 09:40:35;;;;;;;;;;;;;;;23.28;62.88;100235.16;7406900;19;1279;-73
2022/08/17 09:43:09;;;;;;;;;;;;;;;23.25;62.86;100233.66;7408865;19;1859;-66
2022/08/17 09:45:41;;;;;;;;;;;;;;;23.23;62.67;100227.59;7410419;19;1533;-66
2022/08/17 09:48:13;;;;;;;;;;;;;;;23.29;62.66;100231.44;7409108;19;1486;-65
2022/08/17 09:50:46;;;;;;;;;;;;;;;23.21;62.75;100226.94;7407334;19;1624;-64
2022/08/17 09:53:14;;;;;;;;;;;;;;;23.26;62.62;100232.66;7410192;19;1523;-65
2022/08/17 09:55:49;;;;;;;;;;;;;;;23.11;62.78;100231.69;7408661;19;1259;-65
2022/08/17 09:58:24;;;;;;;;;;;;;;;23.16;63.26;100222.06;7409795;19;1633;-64
2022/08/17 10:00:55;;;;;;;;;;;;;;;23.18;63.02;100224.59;7407950;19;1251;-73
2022/08/17 10:03:28;;;;;;;;;;;;;;;23.15;63.06;100222.25;7407202;19;1863;-69
2022/08/17 10:06:03;;;;;;;;;;;;;;;23.11;63.36;100218.22;7406937;19;1377;-63
2022/08/17 10:08:36;;;;;;;;;;;;;;;23.11;63.14;100239.78;7408379;19;1498;-65
2022/08/17 10:11:21;;;;;;;;;;;;;;;23.11;62.98;100224.44;7408787;19;1383;-66
2022/08/17 10:13:52;;;;;;;;;;;;;;;23.08;62.87;100229.34;7408330;19;1672;-66
2022/08/17 10:16:24;;;;;;;;;;;;;;;23.05;63.02;100224.31;7406595;19;1430;-65
2022/08/17 10:19:00;;;;;;;;;;;;;;;22.98;63.36;100210.69;7409710;19;1604;-65
2022/08/17 10:27:05;;;;;;;;;;;;;;;23.10;63.18;100208.44;7410227;19;1327;-65
2022/08/17 10:29:34;;;;;;;;;;;;;;;22.95;63.30;100209.16;7403455;19;1593;-65
2022/08/17 10:32:08;;;;;;;;;;;;;;;22.98;63.30;100208.81;7408209;19;1463;-64
2022/08/17 10:34:53;;;;;;;;;;;;;;;22.97;63.35;100193.63;7407613;19;1276;-65
2022/08/17 10:37:45;;;;;;;;;;;;;;;22.96;63.24;100186.56;7409597;19;1572;-65
2022/08/17 10:40:27;;;;;;;;;;;;;;;22.92;63.24;100173.59;7405457;19;1732;-65
2022/08/17 10:42:58;;;;;;;;;;;;;;;22.93;63.44;100175.28;7407637;19;1849;-65
2022/08/17 10:45:30;;;;;;;;;;;;;;;22.97;63.04;100176.63;7406974;19;1486;-66
2022/08/17 10:48:02;;;;;;;;;;;;;;;22.93;63.20;100178.81;7407777;19;1488;-65
2022/08/17 10:50:46;;;;;;;;;;;;;;;23.02;63.25;100180.50;7407986;19;1619;-65
2022/08/17 10:53:47;;;;;;;;;;;;;;;22.95;63.12;100174.09;7405859;19;2004;-65
2022/08/17 10:56:25;;;;;;;;;;;;;;;23.06;63.35;100196.31;7407136;19;1673;-65
2022/08/17 10:58:56;;;;;;;;;;;;;;;22.98;63.13;100176.44;7404577;19;1273;-65
2022/08/17 11:01:44;;;;;;;;;;;;;;;22.95;63.33;100176.78;7405786;19;1381;-65
2022/08/17 11:04:24;;;;;;;;;;;;;;;22.91;63.15;100180.84;7405389;19;1841;-65
2022/08/17 11:07:00;;;;;;;;;;;;;;;22.94;63.34;100172.44;7407186;19;1334;-66
2022/08/17 11:09:36;;;;;;;;;;;;;;;22.94;63.23;100172.44;7405605;19;1293;-65
2022/08/17 11:12:19;;;;;;;;;;;;;;;22.92;63.54;100170.91;7408123;19;1221;-65
2022/08/17 11:14:54;;;;;;;;;;;;;;;22.92;63.54;100166.38;7402442;19;1421;-65
2022/08/17 11:17:32;;;;;;;;;;;;;;;22.94;63.58;100166.19;7406445;19;1442;-65
2022/08/17 11:20:14;;;;;;;;;;;;;;;22.88;63.59;100151.56;7405776;19;1442;-65
2022/08/17 11:23:04;;;;;;;;;;;;;;;22.94;63.18;100160.78;7405247;19;1450;-65
2022/08/17 11:25:40;;;;;;;;;;;;;;;22.93;63.25;100148.34;7405237;19;1489;-65
2022/08/17 11:28:11;;;;;;;;;;;;;;;22.97;62.99;100155.06;7406893;19;1292;-64
2022/08/17 11:30:47;;;;;;;;;;;;;;;22.84;63.38;100142.16;7405472;19;1275;-64
2022/08/17 11:33:30;;;;;;;;;;;;;;;22.95;63.44;100147.13;7405838;19;1293;-65
2022/08/17 11:36:05;;;;;;;;;;;;;;;22.97;63.08;100152.34;7404133;19;1518;-66
2022/08/17 11:38:44;;;;;;;;;;;;;;;22.99;62.59;100150.31;7405830;19;1654;-66
2022/08/17 11:41:21;;;;;;;;;;;;;;;22.96;62.61;100132.66;7406100;19;1722;-64
2022/08/17 11:44:00;;;;;;;;;;;;;;;22.94;62.64;100145.47;7403153;19;1847;-66
2022/08/17 11:52:19;;;;;;;;;;;;;;;22.91;62.66;100126.94;7404648;19;1260;-66
2022/08/17 11:54:48;;;;;;;;;;;;;;;22.88;62.34;100116.53;7401866;19;1346;-66
2022/08/17 11:57:31;;;;;;;;;;;;;;;22.87;62.58;100119.38;7405719;19;1634;-66
2022/08/17 12:00:07;;;;;;;;;;;;;;;22.82;62.76;100119.94;7405819;19;1398;-66
2022/08/17 12:02:44;;;;;;;;;;;;;;;22.98;63.82;100109.03;7403468;19;1444;-67
2022/08/17 12:05:28;;;;;;;;;;;;;;;23.07;64.83;100109.03;7403363;19;1842;-66
2022/08/17 12:08:02;;;;;;;;;;;;;;;23.18;65.19;100114.84;7405000;19;1604;-66
2022/08/17 12:10:33;;;;;;;;;;;;;;;23.23;66.23;100114.28;7405115;19;1587;-67
2022/08/17 12:13:03;;;;;;;;;;;;;;;23.31;66.84;100113.41;7406155;19;1232;-66
2022/08/17 12:15:37;;;;;;;;;;;;;;;23.33;67.08;100120.28;7402801;19;1654;-66
2022/08/17 12:18:06;;;;;;;;;;;;;;;23.36;67.38;100098.34;7402775;19;1737;-57
2022/08/17 12:20:35;;;;;;;;;;;;;;;23.47;67.56;100120.53;7404074;19;1604;-57
2022/08/17 12:23:08;;;;;;;;;;;;;;;23.41;67.88;100100.50;7402568;19;1869;-57
2022/08/17 12:25:41;;;;;;;;;;;;;;;23.49;67.83;100086.13;7402421;19;1287;-57
2022/08/17 12:28:19;;;;;;;;;;;;;;;23.47;68.24;100099.78;7404073;19;1311;-56
2022/08/17 12:30:53;;;;;;;;;;;;;;;23.57;68.10;100094.13;7404369;19;1680;-57
2022/08/17 12:33:22;;;;;;;;;;;;;;;23.57;68.27;100086.03;7403083;19;1649;-57
2022/08/17 12:35:57;;;;;;;;;;;;;;;23.57;68.36;100086.03;7403632;19;1439;-57
2022/08/17 12:38:26;;;;;;;;;;;;;;;23.63;68.13;100088.00;7402217;19;1672;-57
2022/08/17 12:40:55;;;;;;;;;;;;;;;23.62;68.39;100076.38;7401577;19;1625;-57
2022/08/17 12:43:28;;;;;;;;;;;;;;;23.72;67.92;100084.22;7402163;19;1861;-56
2022/08/17 12:46:00;;;;;;;;;;;;;;;23.71;67.85;100074.44;7405258;19;1007;-56
2022/08/17 12:48:29;;;;;;;;;;;;;;;23.75;68.00;100075.72;7404251;19;1719;-57
2022/08/17 12:51:01;;;;;;;;;;;;;;;23.80;67.74;100084.16;7403761;19;1865;-57
2022/08/17 12:53:31;;;;;;;;;;;;;;;23.77;67.86;100092.63;7400316;19;1671;-57
2022/08/17 12:56:00;;;;;;;;;;;;;;;23.77;68.11;100079.13;7402599;19;1298;-56
2022/08/17 12:58:31;;;;;;;;;;;;;;;23.74;67.79;100094.84;7399366;19;1234;-67
2022/08/17 13:01:03;;;;;;;;;;;;;;;24.10;67.24;100073.41;7399745;19;1475;-62
2022/08/17 13:03:37;;;;;;;;;;;;;;;24.40;65.61;100059.88;7403830;19;1860;-69
2022/08/17 13:06:07;;;;;;;;;;;;;;;24.59;64.96;100045.81;7401007;19;1436;-67
2022/08/17 13:08:37;;;;;;;;;;;;;;;24.71;64.90;100070.47;7403312;19;1439;-60
2022/08/17 13:11:08;;;;;;;;;;;;;;;24.79;64.61;100066.81;7400156;19;1317;-58
2022/08/17 13:13:38;;;;;;;;;;;;;;;24.80;64.97;100069.31;7401356;19;1394;-57
2022/08/17 13:16:16;;;;;;;;;;;;;;;24.77;65.68;100085.06;7401648;19;1460;-60
2022/08/17 13:18:46;;;;;;;;;;;;;;;24.80;65.14;100063.06;7402505;19;1241;-60
2022/08/17 13:21:21;;;;;;;;;;;;;;;24.86;64.69;100062.31;7403924;19;1383;-59
2022/08/17 13:23:59;;;;;;;;;;;;;;;24.90;64.55;100058.19;7401888;19;1854;-57
2022/08/17 13:26:30;;;;;;;;;;;;;;;24.96;64.82;100065.53;7399939;19;1352;-56
2022/08/17 13:28:58;;;;;;;;;;;;;;;24.99;64.72;100061.63;7401289;19;1486;-64
2022/08/17 13:31:36;;;;;;;;;;;;;;;24.95;64.65;100057.63;7401074;19;1502;-66
2022/08/17 13:34:14;;;;;;;;;;;;;;;24.98;64.41;100060.78;7400028;19;1314;-72
2022/08/17 13:36:43;;;;;;;;;;;;;;;24.98;64.33;100068.88;7400529;19;1603;-64
2022/08/17 13:39:15;;;;;;;;;;;;;;;24.93;64.33;100051.56;7407313;19;1548;-71
2022/08/17 13:41:43;;;;;;;;;;;;;;;24.99;64.19;100056.22;7409606;19;1552;-68